Tiempo atmosférico en la estación meteorológica de Maspalomas, Las Palmas (25 m.)



Fecha
DESCASC
Temp. máxima en grados centígrados (hora)
DESCASC
Temp. mínima en grados centígrados (hora)
DESCASC
Temp. media en grados centígrados
DESCASC
Racha de viento máxima en m/sg (hora)
DESCASC
Velocidad máxima media en intervalos de 10 minutos(hora)
DESCASC
Precipitaciones diarias en mm
DESCASC
Precipitaciones de 00:00 a 06:00 en mm
DESCASC
Precipitaciones de 06:00 a 12:00 en mm
DESCASC
Precipitaciones de 12:00 a 18:00 en mm
DESCASC
Precipitaciones de 18:00 a 24:00 en mm
DESCASC
05-04-2020 22.2 (15:00) -3.9 (08:50) 9.2 3.89 (12:00) 3.06 (12:50) 0 0 0 0 0
04-04-2020 22.3 (13:40) 17.2 (09:00) 19.8 8.61 (17:50) 5.83 (17:20) 0 0 0 0 0
03-04-2020 21.1 (15:40) 16.5 (07:10) 18.8 8.33 (17:50) 6.11 (15:30) 0 0 0 0 0
02-04-2020 20.7 (13:20) 13.7 (00:00) 17.2 10.28 (15:20) 8.33 (15:00) 0 0 0 0 0
01-04-2020 21.2 (13:20) 15.5 (00:00) 18.4 6.67 (21:30) 5.28 (21:00) 0 0 0 0 0
31-03-2020 22.6 (15:10) 16.2 (00:00) 19.4 5.28 (17:10) 4.44 (17:10) 0 0 0 0 0
30-03-2020 21.2 (13:20) 15 (00:00) 18.1 8.61 (19:50) 5.83 (15:20) 0 0 0 0 0
29-03-2020 21.3 (15:00) 13.9 (00:00) 17.6 7.22 (20:10) 4.17 (17:20) 0 0 0 0 0
28-03-2020 21.4 (13:50) 14.3 (00:00) 17.8 6.67 (00:10) 4.72 (00:10) 0.4 0.4 0 0 0
27-03-2020 21 (12:40) 13.5 (00:00) 17.3 7.5 (16:20) 4.72 (23:50) 0 0 0 0 0
26-03-2020 18.9 (09:00) 14.3 (00:00) 16.6 5 (10:10) 3.61 (10:10) 1.7 0 0 1.7 0
25-03-2020 20.8 (11:20) 16 (00:00) 18.4 8.06 (14:40) 5.56 (14:40) 0 0 0 0 0
24-03-2020 21.9 (17:10) 17.9 (00:00) 19.9 10.28 (18:40) 7.22 (14:50) 0 0 0 0 0
23-03-2020 22.1 (16:50) 15.9 (00:00) 19 11.11 (15:40) 7.22 (14:00) 0 0 0 0 0
22-03-2020 21.8 (12:30) 15.7 (03:20) 18.7 11.94 (17:50) 6.11 (13:40) 0 0 0 0 0
21-03-2020 21.7 (14:10) 16.7 (00:00) 19.2 19.72 (10:00) 8.89 (10:10) 0 0 0 0 0
20-03-2020 22.2 (15:50) 16 (00:00) 19.1 8.89 (13:40) 7.5 (13:30) 0 0 0 0 0
19-03-2020 -- (--) -- (--) -- -- (--) -- (--) -- -- -- 0 0
18-03-2020 -- (--) -- (--) -- -- (--) -- (--) -- 0 0 -- --
17-03-2020 20.7 (12:00) 15.8 (00:00) 18.3 13.89 (11:30) 9.44 (11:30) 0 0 0 0 0
16-03-2020 21.5 (13:30) 15.3 (00:00) 18.4 8.89 (16:50) 6.67 (16:50) 0 0 0 0 0
15-03-2020 22.1 (13:20) 15.3 (00:00) 18.7 7.78 (14:20) 5.83 (14:50) 0 0 0 0 0
14-03-2020 22.1 (12:00) 15.4 (00:00) 18.8 14.72 (12:00) 7.22 (12:00) 0 0 0 0 0
13-03-2020 22.6 (12:40) 15.7 (03:30) 19.2 12.5 (10:40) 7.78 (10:40) 0 0 0 0 0
12-03-2020 26.2 (11:20) 17 (00:00) 21.6 11.67 (02:30) 8.61 (02:30) 0 0 0 0 0
11-03-2020 24.7 (13:40) 14.4 (00:00) 19.6 8.89 (05:00) 6.94 (13:50) 0 0 0 0 0
10-03-2020 -- (--) -- (--) -- -- (--) -- (--) -- 0 -- 0 0

Gráficas

Temp. máximas Temp. mínimas Temp. medias Precipitaciones Rachas de viento máximas Velocidades máximas media en intervalos de 10 minutos

Datos horarios

Fecha y hora oficial Temperatura (ºC) Velocidad del viento (km/h) Dirección del viento Racha (km/h) Dirección de racha Precipitación (mm) Presión (hPa) Tendencia (hPa) Humedad (%)
2020-04-08 23:00:00 20.4 3 Oeste 7 Oeste 0 -- -- 85
2020-04-08 22:00:00 20.4 0 Calma 7 Oeste 0 -- -- 85
2020-04-08 21:00:00 20.3 2 Oeste 8 Sur 0 -- -- 83
2020-04-08 20:00:00 20.3 5 Sur 12 Sudeste 0 -- -- 85
2020-04-08 19:00:00 21 8 Sur 14 Sudoeste 0 -- -- 85
2020-04-08 18:00:00 21.9 10 Sudoeste 19 Sudoeste 0 -- -- 81
2020-04-08 17:00:00 21.5 18 Sudoeste 24 Sudoeste 0 -- -- 82
2020-04-08 16:00:00 22.9 14 Sudoeste 21 Sudoeste 0 -- -- 75
2020-04-08 15:00:00 22.9 6 Oeste 72 Este 0 -- -- 70
2020-04-08 14:00:00 22.2 35 Este 72 Este 0 -- -- 75
2020-04-08 13:00:00 22.3 5 Sur 9 Sudoeste 0 -- -- 70
2020-04-08 12:00:00 21.7 7 Sudoeste 11 Sudoeste 0 -- -- 76
2020-04-08 11:00:00 21.2 8 Sur 13 Sudeste 0 -- -- 80
2020-04-08 10:00:00 21.1 5 Sudoeste 8 Sudoeste 0 -- -- 79
2020-04-08 09:00:00 20.3 0 Calma -- -- 0 -- -- 81
2020-04-08 08:00:00 18.5 0 Calma 6 Noroeste 0 -- -- 88
2020-04-08 07:00:00 19 0 Calma 7 Este 0 -- -- 88
2020-04-08 06:00:00 19.8 3 Sur 7 Sur 0 -- -- 85
2020-04-08 05:00:00 20 0 Calma 9 Sudoeste 0 -- -- 82
2020-04-08 04:00:00 20.3 4 Oeste 10 Oeste 0 -- -- 80
2020-04-08 03:00:00 20.4 0 Calma 7 Sudoeste 0 -- -- 79
2020-04-08 02:00:00 20.4 0 Calma 10 Oeste 0 -- -- 80
2020-04-08 01:00:00 20.2 4 Oeste 9 Oeste 0 -- -- 80
2020-04-08 00:00:00 20 3 Sudoeste 7 Sudoeste 0 -- -- 88
2020-04-07 23:00:00 19.9 0 Calma 10 Sudoeste 0 -- -- 88
2020-04-07 22:00:00 20 8 Sudoeste 13 Sudoeste 0 -- -- 87
2020-04-07 21:00:00 20.4 9 Sudoeste 12 Sur 0 -- -- 84
2020-04-07 20:00:00 20.2 6 Sudeste 15 Este 0 -- -- 82
2020-04-07 19:00:00 20.6 8 Este 12 Sudeste 0 -- -- 81
2020-04-07 18:00:00 20.5 8 Sudeste 25 Este 0 -- -- 82
2020-04-07 17:00:00 21.4 21 Este 30 Este 0 -- -- 78
2020-04-07 16:00:00 21.8 25 Este 34 Este 0 -- -- 77
2020-04-07 15:00:00 22 26 Este 37 Este 0 -- -- 77
2020-04-07 14:00:00 22 26 Este 33 Este 0 -- -- 75
2020-04-07 13:00:00 22.3 23 Este 33 Nordeste 0 -- -- 70
2020-04-07 12:00:00 23 22 Nordeste 30 Nordeste 0 -- -- 66
2020-04-07 11:00:00 21.9 19 Este 27 Este 0 -- -- 75
2020-04-07 10:00:00 21.8 4 Este 13 Este 0 -- -- 68
2020-04-07 09:00:00 20.4 5 Nordeste 7 Este 0 -- -- 77
2020-04-07 08:00:00 19 0 Calma 5 Norte 0 -- -- 82
2020-04-07 07:00:00 19 0 Calma 6 Nordeste 0 -- -- 82
2020-04-07 06:00:00 18.2 0 Calma 4 Norte 0 -- -- 84
2020-04-07 05:00:00 17.4 0 Calma 2 Noroeste 0 -- -- 86
2020-04-07 04:00:00 18.2 0 Calma 3 Noroeste 0 -- -- 86
2020-04-07 03:00:00 18.5 0 Calma 3 Norte 0 -- -- 85
2020-04-07 02:00:00 18.8 0 Calma -- -- 0 -- -- 86
2020-04-07 01:00:00 19.5 0 Calma 7 Nordeste 0 -- -- 84
2020-04-07 00:00:00 19.6 0 Calma 4 Oeste 0 -- -- 83
2020-04-06 23:00:00 20.3 0 Calma 7 Noroeste 0 -- -- 83
2020-04-06 22:00:00 20.4 2 Oeste 10 Sudoeste 0 -- -- 85
2020-04-06 21:00:00 20.7 6 Oeste 17 Sudoeste 0 -- -- 83
2020-04-06 20:00:00 20.7 14 Sudoeste 18 Sudoeste 0 -- -- 80
2020-04-06 19:00:00 21.2 6 Sur 10 Sudeste 0 -- -- 80
2020-04-06 18:00:00 21.7 8 Este 18 Este 0 -- -- 76
2020-04-06 17:00:00 22.1 7 Sudeste 14 Sudeste 0 -- -- 74
2020-04-06 16:00:00 22.2 7 Sudeste 11 Sur 0 -- -- 75
2020-04-06 15:00:00 22.3 6 Sudeste 12 Sur 0 -- -- 74
2020-04-06 14:00:00 22.3 7 Sur 12 Sudoeste 0 -- -- 70
2020-04-06 13:00:00 22.7 8 Sur 12 Sudoeste 0 -- -- 70
2020-04-06 12:00:00 22.7 9 Sudoeste 11 Sudoeste 0 -- -- 69
2020-04-06 11:00:00 21.5 5 Sur 11 Este 0 -- -- 77
2020-04-06 10:00:00 20.1 8 Este 11 Este 0 -- -- 80
2020-04-06 09:00:00 19.1 0 Calma 4 Noroeste 0 -- -- 76
2020-04-06 08:00:00 17.1 0 Calma 4 Noroeste 0 -- -- 81
2020-04-06 07:00:00 15.6 0 Calma -- -- 0 -- -- 80
2020-04-06 06:00:00 17.3 0 Calma 3 Noroeste 0 -- -- 78
2020-04-06 05:00:00 17.6 0 Calma 7 Noroeste 0 -- -- 74
2020-04-06 04:00:00 18 0 Calma 7 Noroeste 0 -- -- 76
2020-04-06 03:00:00 18.3 0 Calma 5 Noroeste 0 -- -- 81
2020-04-06 02:00:00 19 0 Calma 3 Noroeste 0 -- -- 84
2020-04-06 01:00:00 19 0 Calma 3 Oeste 0 -- -- 86
2020-04-06 00:00:00 19.9 0 Calma -- -- 0 -- -- 85
2020-04-05 23:00:00 20 0 Calma 5 Oeste 0 -- -- 84
2020-04-05 22:00:00 20.2 0 Calma 5 Sudoeste 0 -- -- 82
2020-04-05 21:00:00 20.5 0 Calma 3 Sudeste 0 -- -- 83
2020-04-05 20:00:00 20.9 3 Sudeste 8 Sudeste 0 -- -- 81
2020-04-05 19:00:00 21.4 6 Sudeste 10 Sudeste 0 -- -- 77
2020-04-05 18:00:00 21.9 6 Sudeste 10 Sudeste 0 -- -- 75
2020-04-05 17:00:00 21.8 6 Sudeste 10 Sudeste 0 -- -- 76
2020-04-05 16:00:00 21.9 8 Sudeste 10 Sur 0 -- -- 73
2020-04-05 15:00:00 22.2 6 Sur 10 Sur 0 -- -- 75
2020-04-05 14:00:00 22 7 Sudeste 13 Sudeste 0 -- -- 77
2020-04-05 13:00:00 20.9 11 Sudeste 14 Sudeste 0 -- -- 83
2020-04-05 12:00:00 20.3 10 Sudeste 14 Sudeste 0 -- -- 85
2020-04-05 11:00:00 20.4 6 Sudeste 8 Sudeste 0 -- -- 76
2020-04-05 10:00:00 19.7 4 Sudeste 7 Sudeste 0 -- -- 87
2020-04-05 09:00:00 19.3 5 Nordeste 8 Nordeste 0 -- -- 73
2020-04-05 08:00:00 16.1 0 Calma 4 Nordeste 0 -- -- 80
2020-04-05 07:00:00 16.9 0 Calma 4 Noroeste 0 -- -- 84
2020-04-05 06:00:00 17.4 0 Calma 6 Noroeste 0 -- -- 83
2020-04-05 05:00:00 18 0 Calma 5 Norte 0 -- -- 84
2020-04-05 04:00:00 18.2 0 Calma 5 Noroeste 0 -- -- 85
2020-04-05 03:00:00 18.9 0 Calma 5 Noroeste 0 -- -- 84
2020-04-05 02:00:00 19.6 0 Calma 10 Oeste 0 -- -- 88
2020-04-05 01:00:00 20 4 Oeste 13 Oeste 0 -- -- 87
2020-04-05 00:00:00 20.1 3 Oeste 14 Oeste 0 -- -- 81
2020-04-04 23:00:00 20 4 Oeste 14 Oeste 0 -- -- 84
2020-04-04 22:00:00 20 6 Oeste 14 Oeste 0 -- -- 89
2020-04-04 21:00:00 20.3 4 Oeste 20 Sudoeste 0 -- -- 87
2020-04-04 20:00:00 20.6 10 Oeste 30 Oeste 0 -- -- 84
2020-04-04 19:00:00 21 14 Oeste 30 Oeste 0 -- -- 80
2020-04-04 18:00:00 21.4 18 Oeste 31 Sudoeste 0 -- -- 80
2020-04-04 17:00:00 21.7 18 Oeste 29 Sudoeste 0 -- -- 80
2020-04-04 16:00:00 21.7 18 Oeste 30 Sudoeste 0 -- -- 76
2020-04-04 15:00:00 22.1 17 Oeste 28 Oeste 0 -- -- 76
2020-04-04 14:00:00 21.7 15 Oeste 23 Oeste 0 -- -- 76
2020-04-04 13:00:00 21.7 11 Oeste 25 Sudoeste 0 -- -- 74
2020-04-04 12:00:00 21.1 15 Oeste 26 Oeste 0 -- -- 80
2020-04-04 11:00:00 20.9 16 Oeste 31 Oeste 0 -- -- 82
2020-04-04 10:00:00 20.4 14 Oeste 27 Oeste 0 -- -- 83
2020-04-04 09:00:00 19.2 8 Oeste 19 Oeste 0 -- -- 86
2020-04-04 08:00:00 18.9 4 Oeste 13 Oeste 0 -- -- 89
2020-04-04 07:00:00 19.2 7 Oeste 20 Sudoeste 0 -- -- 90
2020-04-04 06:00:00 19.3 12 Oeste 25 Oeste 0 -- -- 92
2020-04-04 05:00:00 19.4 14 Oeste 26 Sudoeste 0 -- -- 91
2020-04-04 04:00:00 19.6 14 Oeste 25 Oeste 0 -- -- 90
2020-04-04 03:00:00 19.8 8 Oeste 22 Sudoeste 0 -- -- 91
2020-04-04 02:00:00 19.5 12 Sudoeste 24 Sudoeste 0 -- -- 92
2020-04-04 01:00:00 19.8 17 Sudoeste 26 Sudoeste 0 -- -- 87
2020-04-04 00:00:00 19.9 12 Sudoeste 18 Sudoeste 0 -- -- 85
2020-04-03 23:00:00 19.7 8 Oeste 21 Sudoeste 0 -- -- 81
2020-04-03 22:00:00 19.7 13 Oeste 23 Oeste 0 -- -- 80
2020-04-03 21:00:00 19.6 12 Oeste 27 Sudoeste 0 -- -- 77
2020-04-03 20:00:00 19.8 14 Oeste 26 Oeste 0 -- -- 76
2020-04-03 19:00:00 20.1 14 Oeste 29 Sudoeste 0 -- -- 71
2020-04-03 18:00:00 20.5 18 Sudoeste 30 Sudoeste 0 -- -- 71
2020-04-03 17:00:00 21.1 18 Sudoeste 28 Sudoeste 0 -- -- 66
2020-04-03 16:00:00 21 18 Sudoeste 28 Sudoeste 0 -- -- 68
2020-04-03 15:00:00 20.3 19 Sudoeste 28 Sudoeste 0 -- -- 68
2020-04-03 14:00:00 20.8 20 Sudoeste 30 Sudoeste 0 -- -- 64
2020-04-03 13:00:00 20.2 17 Sudoeste 22 Sudoeste 0 -- -- 70
2020-04-03 12:00:00 19.6 12 Sudoeste 16 Sudoeste 0 -- -- 70
2020-04-03 11:00:00 19.1 7 Sur 11 Sur 0 -- -- 70
2020-04-03 10:00:00 18.3 3 Sudoeste 9 Oeste 0 -- -- 70
2020-04-03 09:00:00 17.3 0 Calma 7 Nordeste 0 -- -- 74
2020-04-03 08:00:00 16.5 6 Nordeste 10 Nordeste 0 -- -- 76
2020-04-03 07:00:00 16.6 3 Nordeste 9 Este 0 -- -- 77
2020-04-03 06:00:00 16.9 7 Nordeste 10 Este 0 -- -- 75
2020-04-03 05:00:00 17.7 8 Este 14 Nordeste 0 -- -- 72
2020-04-03 04:00:00 17.8 10 Nordeste 17 Este 0 -- -- 71
2020-04-03 03:00:00 17.9 10 Nordeste 18 Este 0 -- -- 69
2020-04-03 02:00:00 18.2 10 Nordeste 18 Este 0 -- -- 70
2020-04-03 01:00:00 18.3 12 Este 21 Nordeste 0 -- -- 70
2020-04-03 00:00:00 18 12 Este 22 Este 0 -- -- 69
2020-04-02 23:00:00 18.1 12 Nordeste 24 Nordeste 0 -- -- 70
2020-04-02 22:00:00 18.4 15 Nordeste 24 Este 0 -- -- 71
2020-04-02 21:00:00 18 18 Este 30 Nordeste 0 -- -- 71
2020-04-02 20:00:00 18.9 23 Este 33 Este 0 -- -- 70
2020-04-02 19:00:00 15.3 28 Este 35 Este 0 -- -- 72
2020-04-02 18:00:00 19.7 25 Este 30 Este 0 -- -- 70
2020-04-02 17:00:00 20.3 23 Este 32 Este 0 -- -- 65
2020-04-02 16:00:00 20.4 28 Este 37 Este 0 -- -- 69
2020-04-02 15:00:00 20.3 30 Este 35 Este 0 -- -- 69
2020-04-02 14:00:00 20.3 26 Este 33 Este 0 -- -- 71
2020-04-02 13:00:00 20.5 24 Este 33 Este 0 -- -- 71
2020-04-02 12:00:00 20.3 29 Este 35 Este 0 -- -- 65
2020-04-02 11:00:00 20.1 23 Este 30 Este 0 -- -- 64
2020-04-02 10:00:00 18.8 18 Este 24 Este 0 -- -- 65
2020-04-02 09:00:00 17.7 0 Calma 3 Norte 0 -- -- 70
2020-04-02 08:00:00 15.4 0 Calma 5 Norte 0 -- -- 77
2020-04-02 07:00:00 15.5 0 Calma 7 Norte 0 -- -- 78
2020-04-02 06:00:00 16 3 Norte 8 Nordeste 0 -- -- 77
2020-04-02 05:00:00 16.6 0 Calma 10 Norte 0 -- -- 73
2020-04-02 04:00:00 17.3 3 Nordeste 15 Nordeste 0 -- -- 70
2020-04-02 03:00:00 18.3 12 Este 18 Nordeste 0 -- -- 68
2020-04-02 02:00:00 17.4 0 Calma 12 Este 0 -- -- 73
2020-04-02 01:00:00 18.2 2 Nordeste 13 Nordeste 0 -- -- 70
2020-04-02 00:00:00 18.6 8 Nordeste 22 Este 0 -- -- 69
2020-04-01 23:00:00 18.7 16 Nordeste 22 Nordeste 0 -- -- 69
2020-04-01 22:00:00 18.9 14 Nordeste 24 Este 0 -- -- 69
2020-04-01 21:00:00 19.1 19 Este 23 Este 0 -- -- 72
2020-04-01 20:00:00 19.3 13 Este 17 Este 0 -- -- 72
2020-04-01 19:00:00 19.5 12 Este 15 Este 0 -- -- 69
2020-04-01 18:00:00 20 12 Este 18 Este 0 -- -- 67
2020-04-01 17:00:00 20.1 12 Este 15 Este 0 -- -- 67
2020-04-01 16:00:00 20 11 Sudeste 19 Este 0 -- -- 68
2020-04-01 15:00:00 20.9 15 Este 21 Este 0 -- -- 61
2020-04-01 14:00:00 20.7 16 Este 22 Este 0 -- -- 63
2020-04-01 13:00:00 20.2 17 Este 22 Este 0 -- -- 69
2020-04-01 12:00:00 20.7 17 Este 21 Este 0 -- -- 66
2020-04-01 11:00:00 19.7 17 Este 23 Este 0 -- -- 68
2020-04-01 10:00:00 19.1 10 Nordeste 17 Nordeste 0 -- -- 69
2020-04-01 09:00:00 17.7 0 Calma 8 Este 0 -- -- 75
2020-04-01 08:00:00 16.1 0 Calma 7 Nordeste 0 -- -- 82
2020-04-01 07:00:00 17 0 Calma 9 Nordeste 0 -- -- 80
2020-04-01 06:00:00 17.4 3 Nordeste 7 Nordeste 0 -- -- 78
2020-04-01 05:00:00 17.3 2 Nordeste 10 Nordeste 0 -- -- 81
2020-04-01 04:00:00 18.4 9 Nordeste 21 Este 0 -- -- 79
2020-04-01 03:00:00 18.5 13 Este 18 Este 0 -- -- 77
2020-04-01 02:00:00 19 8 Este 13 Este 0 -- -- 78
2020-04-01 01:00:00 19.2 9 Este 14 Este 0 -- -- 79
2020-04-01 00:00:00 19.2 5 Sudeste 8 Sur 0 -- -- 78
2020-03-31 23:00:00 19.5 5 Sur 10 Sur 0 -- -- 78
2020-03-31 22:00:00 19.4 5 Sudoeste 9 Sudoeste 0 -- -- 78
2020-03-31 21:00:00 19.4 8 Sudoeste 14 Sudoeste 0 -- -- 77
2020-03-31 20:00:00 19.7 12 Sudoeste 18 Sudoeste 0 -- -- 75
2020-03-31 19:00:00 20.3 14 Sudoeste 18 Sudoeste 0 -- -- 73
2020-03-31 18:00:00 20.7 14 Sudoeste 19 Sudoeste 0 -- -- 71
2020-03-31 17:00:00 21.5 15 Sudoeste 18 Sudoeste 0 -- -- 70
2020-03-31 16:00:00 21.7 14 Sudoeste 18 Sudoeste 0 -- -- 66
2020-03-31 15:00:00 21.6 12 Sur 15 Sudoeste 0 -- -- 68
2020-03-31 14:00:00 20.9 10 Sur 14 Sur 0 -- -- 70
2020-03-31 13:00:00 21.3 11 Sur 14 Sur 0 -- -- 69
2020-03-31 12:00:00 20.4 12 Sur 14 Sur 0 -- -- 72
2020-03-31 11:00:00 19.7 9 Sudeste 11 Sur 0 -- -- 76
2020-03-31 10:00:00 19.2 5 Sudeste 9 Sudeste 0 -- -- 77
2020-03-31 09:00:00 18.9 0 Calma -- -- 0 -- -- 76
2020-03-31 08:00:00 17.3 0 Calma 6 Este 0 -- -- 84
2020-03-31 07:00:00 17.8 5 Nordeste 9 Nordeste 0 -- -- 83
2020-03-31 06:00:00 18.3 0 Calma 10 Nordeste 0 -- -- 79
2020-03-31 05:00:00 17.7 0 Calma 6 Norte 0 -- -- 78
2020-03-31 04:00:00 17.3 0 Calma -- -- 0 -- -- 78
2020-03-31 03:00:00 16.8 0 Calma 7 Noroeste 0 -- -- 80
2020-03-31 02:00:00 16.3 0 Calma 12 Este 0 -- -- 82
2020-03-31 01:00:00 17.5 0 Calma 4 Sudeste 0 -- -- 81
2020-03-31 00:00:00 17.9 0 Calma 4 Noroeste 0 -- -- 77
2020-03-30 23:00:00 18.3 2 Noroeste 15 Noroeste 0 -- -- 74
2020-03-30 22:00:00 18.7 5 Oeste 23 Oeste 0 -- -- 75
2020-03-30 21:00:00 18.9 11 Oeste 31 Oeste 0 -- -- 74
2020-03-30 20:00:00 19.1 16 Oeste 31 Oeste 0 -- -- 76
2020-03-30 19:00:00 19.5 16 Oeste 29 Oeste 0 -- -- 76
2020-03-30 18:00:00 19.8 15 Oeste 29 Sudoeste 0 -- -- 73
2020-03-30 17:00:00 19.8 17 Oeste 27 Sudoeste 0 -- -- 70
2020-03-30 16:00:00 20.4 17 Sudoeste 28 Sudoeste 0 -- -- 67
2020-03-30 15:00:00 20.3 21 Sudoeste 24 Sudoeste 0 -- -- 68
2020-03-30 14:00:00 20.6 16 Sudoeste 19 Sudoeste 0 -- -- 64
2020-03-30 13:00:00 20.6 11 Sudoeste 15 Sudoeste 0 -- -- 66
2020-03-30 12:00:00 20.7 8 Sudoeste 11 Sudoeste 0 -- -- 66
2020-03-30 11:00:00 19.7 6 Sudoeste 11 Sudoeste 0 -- -- 67
2020-03-30 10:00:00 18.6 0 Calma 6 Sudoeste 0 -- -- 65
2020-03-30 09:00:00 17.1 0 Calma 4 Norte 0 -- -- 69
2020-03-30 08:00:00 15.3 0 Calma 5 Noroeste 0 -- -- 74
2020-03-30 07:00:00 15.3 0 Calma 0 Calma 0 -- -- 75
2020-03-30 06:00:00 15.5 0 Calma 6 Norte 0 -- -- 76
2020-03-30 05:00:00 16.4 2 Norte 7 Nordeste 0 -- -- 75
2020-03-30 04:00:00 16.8 0 Calma 7 Nordeste 0 -- -- 74
2020-03-30 03:00:00 16.9 4 Norte 8 Norte 0 -- -- 74
2020-03-30 02:00:00 17.4 4 Nordeste 10 Nordeste 0 -- -- 74
2020-03-30 01:00:00 18 6 Nordeste 15 Nordeste 0 -- -- 73
2020-03-30 00:00:00 18.3 9 Nordeste 15 Nordeste 0 -- -- 72
2020-03-29 23:00:00 18.5 0 Calma 16 Oeste 0 -- -- 72
2020-03-29 22:00:00 18.7 5 Oeste 20 Oeste 0 -- -- 72
2020-03-29 21:00:00 19 10 Oeste 26 Oeste 0 -- -- 71
2020-03-29 20:00:00 17.5 13 Oeste 26 Oeste 0 -- -- 70
2020-03-29 19:00:00 17.1 12 Oeste 19 Sudoeste 0 -- -- 67
2020-03-29 18:00:00 17.5 14 Sudoeste 21 Sudoeste 0 -- -- 57
2020-03-29 17:00:00 20.1 15 Sudoeste 19 Sudoeste 0 -- -- 57
2020-03-29 16:00:00 20.4 12 Sudoeste 15 Sudoeste 0 -- -- 61
2020-03-29 15:00:00 20.8 9 Sur 13 Sur 0 -- -- 60
2020-03-29 14:00:00 19.5 9 Sudeste 14 Sur 0 -- -- 66
2020-03-29 13:00:00 19.2 10 Sudeste 15 Sudeste 0 -- -- 68
2020-03-29 12:00:00 19.2 10 Sudeste 14 Sudeste 0 -- -- 66
2020-03-29 11:00:00 18.9 10 Este 14 Este 0 -- -- 64
2020-03-29 10:00:00 18.9 0 Calma -- -- 0 -- -- 61
2020-03-29 09:00:00 17.3 0 Calma -- -- 0 -- -- 64
2020-03-29 08:00:00 14.9 0 Calma 10 Norte 0 -- -- 70
2020-03-29 07:00:00 14.3 2 Norte 8 Norte 0 -- -- 73
2020-03-29 06:00:00 14.8 0 Calma -- -- 0 -- -- 76
2020-03-29 05:00:00 15.1 0 Calma -- -- 0 -- -- 73
2020-03-29 04:00:00 15.2 0 Calma -- -- 0 -- -- 78
2020-03-29 00:00:00 16.7 0 Calma 6 Norte 0 -- -- 76
2020-03-28 23:00:00 18.4 4 Sur 10 Sur 0 -- -- 72
2020-03-28 22:00:00 18.4 5 Sur 9 Sur 0 -- -- 72
2020-03-28 21:00:00 18.5 6 Sudoeste 10 Sudoeste 0 -- -- 70
2020-03-28 20:00:00 18.8 5 Oeste 19 Oeste 0 -- -- 69
2020-03-28 19:00:00 19.1 11 Oeste 19 Oeste 0 -- -- 68
2020-03-28 18:00:00 20 10 Oeste 19 Oeste 0 -- -- 66
2020-03-28 17:00:00 20 9 Sudoeste 15 Sudoeste 0 -- -- 63
2020-03-28 16:00:00 16.7 3 Sur 13 Sudoeste 0 -- -- 57
2020-03-28 15:00:00 19.5 11 Sudoeste 16 Sudoeste 0 -- -- 63
2020-03-28 14:00:00 20.9 13 Sudoeste 17 Sudoeste 0 -- -- 59
2020-03-28 13:00:00 20.6 9 Sur 15 Sudoeste 0 -- -- 61
2020-03-28 12:00:00 20.1 9 Sur 13 Sur 0 -- -- 65
2020-03-28 11:00:00 19.6 8 Sur 10 Sudeste 0 -- -- 70
2020-03-28 10:00:00 18.6 5 Sudeste 9 Sudeste 0 -- -- 72
2020-03-28 09:00:00 19 0 Calma 6 Norte 0 -- -- 70
2020-03-28 08:00:00 16.5 0 Calma 4 Norte 0 -- -- 79
2020-03-28 07:00:00 14.4 0 Calma 5 Noroeste 0 -- -- 88
2020-03-28 06:00:00 14.6 0 Calma 7 Noroeste 0 -- -- 89
2020-03-28 05:00:00 15 0 Calma 5 Noroeste 0 -- -- 90
2020-03-28 04:00:00 15.4 0 Calma 5 Noroeste 0 -- -- 89
2020-03-28 03:00:00 15.9 2 Noroeste 6 Noroeste 0 -- -- 91
2020-03-28 02:00:00 16.5 0 Calma 7 Nordeste 0 -- -- 90
2020-03-28 01:00:00 16.7 4 Nordeste 24 Nordeste 0.4 -- -- 86
2020-03-28 00:00:00 17.3 16 Nordeste 25 Este 0 -- -- 78
2020-03-27 23:00:00 17.4 10 Nordeste 17 Nordeste 0 -- -- 81
2020-03-27 22:00:00 18.3 2 Oeste 10 Oeste 0 -- -- 74
2020-03-27 21:00:00 18.5 0 Calma 15 Sudoeste 0 -- -- 73
2020-03-27 20:00:00 18.5 9 Oeste 22 Oeste 0 -- -- 72
2020-03-27 19:00:00 18.9 14 Sudoeste 23 Sudoeste 0 -- -- 73
2020-03-27 18:00:00 19.2 13 Oeste 24 Oeste 0 -- -- 69
2020-03-27 17:00:00 20.1 14 Oeste 27 Oeste 0 -- -- 64
2020-03-27 16:00:00 19.9 14 Oeste 27 Oeste 0 -- -- 65
2020-03-27 15:00:00 20 13 Oeste 23 Sudoeste 0 -- -- 65
2020-03-27 14:00:00 20.5 15 Sudoeste 22 Sudoeste 0 -- -- 62
2020-03-27 13:00:00 20.7 12 Sudoeste 20 Sudoeste 0 -- -- 57
2020-03-27 12:00:00 19.7 7 Sudeste 12 Sudeste 0 -- -- 59
2020-03-27 11:00:00 18.6 6 Sudeste 10 Sur 0 -- -- 65
2020-03-27 10:00:00 18.3 6 Sudeste 10 Este 0 -- -- 69
2020-03-27 09:00:00 18.1 5 Este 8 Este 0 -- -- 63
2020-03-27 08:00:00 16.3 0 Calma 6 Noroeste 0 -- -- 67
2020-03-27 07:00:00 14.3 0 Calma 5 Noroeste 0 -- -- 78
2020-03-27 06:00:00 15.2 0 Calma 4 Noroeste 0 -- -- 79
2020-03-27 05:00:00 15.1 0 Calma 5 Noroeste 0 -- -- 78
2020-03-27 04:00:00 14.2 0 Calma 6 Noroeste 0 -- -- 81
2020-03-27 03:00:00 13.5 0 Calma 4 Noroeste 0 -- -- 83
2020-03-27 02:00:00 13.6 0 Calma 4 Noroeste 0 -- -- 82
2020-03-27 01:00:00 14 0 Calma 5 Noroeste 0 -- -- 83
2020-03-27 00:00:00 14.3 0 Calma 4 Noroeste 0 -- -- 85
2020-03-26 23:00:00 15.2 0 Calma 6 Norte 0 -- -- 82
2020-03-26 22:00:00 15.2 0 Calma 6 Nordeste 0 -- -- 82
2020-03-26 21:00:00 15.6 0 Calma 9 Nordeste 0 -- -- 80
2020-03-26 20:00:00 16 6 Nordeste 16 Este 0 -- -- 77
2020-03-26 19:00:00 16.1 12 Nordeste 15 Nordeste 0 -- -- 79
2020-03-26 18:00:00 16.4 10 Este 15 Este 0 -- -- 74
2020-03-26 17:00:00 16.6 13 Este 17 Este 0 -- -- 78
2020-03-26 16:00:00 16.2 13 Nordeste 17 Este 0.2 -- -- 80
2020-03-26 15:00:00 15.7 3 Sur 15 Este 1.4 -- -- 87
2020-03-26 14:00:00 17.9 6 Nordeste 14 Nordeste 0 -- -- 70
2020-03-26 13:00:00 17.7 10 Sudeste 17 Este 0.1 -- -- 72
2020-03-26 12:00:00 18.5 13 Este 17 Este 0 -- -- 66
2020-03-26 11:00:00 18.4 11 Sudeste 18 Sudeste 0 -- -- 64
2020-03-26 10:00:00 18.7 12 Sudeste 17 Sudeste 0 -- -- 64
2020-03-26 09:00:00 18.7 4 Este 7 Este 0 -- -- 59
2020-03-26 08:00:00 16.7 2 Norte 4 Norte 0 -- -- 63
2020-03-26 07:00:00 14.9 2 Norte 4 Norte 0 -- -- 69
2020-03-26 06:00:00 15.2 2 Norte 7 Norte 0 -- -- 69
2020-03-26 05:00:00 16.7 4 Norte 12 Norte 0 -- -- 63
2020-03-26 04:00:00 16.7 5 Norte 11 Norte 0 -- -- 63
2020-03-26 03:00:00 16.4 0 Calma 13 Nordeste 0 -- -- 66
2020-03-26 02:00:00 16.9 10 Nordeste 16 Nordeste 0 -- -- 64
2020-03-26 01:00:00 17.2 7 Nordeste 14 Nordeste 0 -- -- 61
2020-03-26 00:00:00 16.5 5 Nordeste 9 Nordeste 0 -- -- 71
2020-03-25 23:00:00 16.7 4 Nordeste 9 Este 0 -- -- 71
2020-03-25 22:00:00 17.2 4 Nordeste 20 Nordeste 0 -- -- 67
2020-03-25 21:00:00 17.7 16 Nordeste 22 Este 0 -- -- 67
2020-03-25 20:00:00 17.9 14 Nordeste 21 Nordeste 0 -- -- 67
2020-03-25 19:00:00 18.1 11 Nordeste 22 Este 0 -- -- 70
2020-03-25 18:00:00 18.4 16 Nordeste 23 Nordeste 0 -- -- 68
2020-03-25 17:00:00 18.5 18 Nordeste 28 Este 0 -- -- 66
2020-03-25 16:00:00 18.5 16 Nordeste 26 Nordeste 0 -- -- 65
2020-03-25 15:00:00 19.4 15 Nordeste 29 Nordeste 0 -- -- 56
2020-03-25 14:00:00 19 15 Nordeste 23 Este 0 -- -- 63
2020-03-25 13:00:00 19.1 13 Este 22 Este 0 -- -- 63
2020-03-25 12:00:00 18.9 7 Sudeste 19 Sudoeste 0 -- -- 64
2020-03-25 11:00:00 20.6 16 Sudoeste 20 Sudoeste 0 -- -- 64
2020-03-25 10:00:00 19.7 7 Sudoeste 11 Sudoeste 0 -- -- 61
2020-03-25 09:00:00 19.1 3 Sudoeste 5 Sudoeste 0 -- -- 63
2020-03-25 08:00:00 18.3 0 Calma 4 Nordeste 0 -- -- 66
2020-03-25 07:00:00 18.1 3 Sudeste 12 Sudoeste 0 -- -- 68
2020-03-25 06:00:00 18.3 9 Sur 12 Sur 0 -- -- 70
2020-03-25 05:00:00 17.9 2 Oeste 9 Sudoeste 0 -- -- 70
2020-03-25 04:00:00 17.9 3 Oeste 10 Noroeste 0 -- -- 71
2020-03-25 03:00:00 16.6 0 Calma 10 Noroeste 0 -- -- 69
2020-03-25 02:00:00 16.7 0 Calma 8 Norte 0 -- -- 70
2020-03-25 01:00:00 16.9 0 Calma 3 Este 0 -- -- 74
2020-03-25 00:00:00 18.3 3 Sur 18 Sur 0 -- -- 70
2020-03-24 23:00:00 18.6 9 Sur 23 Sur 0 -- -- 70
2020-03-24 22:00:00 18.8 17 Sudoeste 21 Sudoeste 0 -- -- 74
2020-03-24 21:00:00 18.9 10 Sudoeste 14 Sur 0 -- -- 70
2020-03-24 20:00:00 19.1 11 Sur 30 Sudeste 0 -- -- 70
2020-03-24 19:00:00 19 24 Sudeste 37 Este 0 -- -- 72
2020-03-24 18:00:00 19.6 20 Este 24 Este 0 -- -- 73
2020-03-24 17:00:00 21.6 14 Este 24 Sur 0 -- -- 52
2020-03-24 16:00:00 20.2 21 Sur 30 Sur 0 -- -- 68
2020-03-24 15:00:00 20.1 25 Sur 31 Sur 0 -- -- 67
2020-03-24 14:00:00 20.4 22 Sur 26 Sur 0 -- -- 66
2020-03-24 13:00:00 20.3 20 Sur 30 Sur 0 -- -- 65
2020-03-24 12:00:00 19.7 24 Sur 30 Sudoeste 0 -- -- 66
2020-03-24 11:00:00 19 15 Sudeste 21 Sudeste 0 -- -- 66
2020-03-24 10:00:00 18.7 15 Este 17 Este 0 -- -- 69
2020-03-24 09:00:00 19 6 Nordeste 15 Sur 0 -- -- 59
2020-03-24 08:00:00 18.5 8 Sur 16 Sur 0 -- -- 70
2020-03-24 07:00:00 18.3 6 Sudeste 21 Sudeste 0 -- -- 67
2020-03-24 06:00:00 18.3 13 Sudeste 18 Sudeste 0 -- -- 70
2020-03-24 05:00:00 18.3 0 Calma 19 Sur 0 -- -- 67
2020-03-24 04:00:00 18.3 17 Sudeste 22 Sudeste 0 -- -- 70
2020-03-24 03:00:00 18.5 6 Sudeste 16 Sudeste 0 -- -- 62
2020-03-24 02:00:00 18.7 10 Sudeste 14 Sudeste 0 -- -- 66
2020-03-24 01:00:00 18.6 0 Calma 13 Oeste 0 -- -- 57
2020-03-24 00:00:00 19 5 Sur 22 Sudeste 0 -- -- 59
2020-03-23 23:00:00 18.8 13 Sudeste 20 Sudeste 0 -- -- 65
2020-03-23 22:00:00 19.2 3 Sudoeste 22 Sur 0 -- -- 50
2020-03-23 21:00:00 18.9 4 Nordeste 18 Sudoeste 0 -- -- 47
2020-03-23 20:00:00 19.2 14 Sudoeste 19 Sudoeste 0 -- -- 48
2020-03-23 19:00:00 19.6 7 Sur 23 Sur 0 -- -- 46
2020-03-23 18:00:00 19.4 17 Sur 27 Sur 0 -- -- 62
2020-03-23 17:00:00 21 11 Oeste 23 Norte 0 -- -- 44
2020-03-23 16:00:00 21.1 15 Nordeste 40 Sudeste 0 -- -- 42
2020-03-23 15:00:00 19.2 20 Sudeste 36 Sur 0 -- -- 63
2020-03-23 14:00:00 19.3 26 Sur 33 Sur 0 -- -- 60
2020-03-23 13:00:00 19.7 21 Sur 26 Sur 0 -- -- 56
2020-03-23 12:00:00 19 16 Sur 27 Este 0 -- -- 57
2020-03-23 11:00:00 18.8 17 Sudeste 27 Sudeste 0 -- -- 55
2020-03-23 10:00:00 18.9 3 Nordeste 21 Noroeste 0 -- -- 44
2020-03-23 09:00:00 18 2 Sudeste 19 Nordeste 0 -- -- 52
2020-03-23 08:00:00 16.5 2 Noroeste 14 Noroeste 0 -- -- 53
2020-03-23 07:00:00 16 7 Oeste 26 Noroeste 0 -- -- 57
2020-03-23 06:00:00 16.8 6 Oeste 35 Noroeste 0 -- -- 53
2020-03-23 05:00:00 17.1 10 Noroeste 34 Norte 0 -- -- 44
2020-03-23 04:00:00 17.7 8 Noroeste 22 Oeste 0 -- -- 44
2020-03-23 03:00:00 16.9 4 Noroeste 16 Noroeste 0 -- -- 50
2020-03-23 02:00:00 17.2 3 Noroeste 13 Noroeste 0 -- -- 51
2020-03-23 01:00:00 17.9 3 Noroeste 13 Oeste 0 -- -- 49
2020-03-23 00:00:00 18.3 6 Oeste 19 Noroeste 0 -- -- 47
2020-03-22 23:00:00 17.3 0 Calma 14 Nordeste 0 -- -- 69
2020-03-22 22:00:00 18 3 Nordeste 9 Sudoeste 0 -- -- 71
2020-03-22 21:00:00 18.3 2 Oeste 16 Oeste 0 -- -- 73
2020-03-22 20:00:00 18.4 7 Oeste 26 Oeste 0 -- -- 72
2020-03-22 19:00:00 18.6 12 Oeste 38 Oeste 0 -- -- 70
2020-03-22 18:00:00 19.4 19 Oeste 43 Oeste 0 -- -- 68
2020-03-22 17:00:00 19.5 15 Oeste 31 Oeste 0 -- -- 67
2020-03-22 16:00:00 19.9 8 Sudoeste 28 Sudoeste 0 -- -- 64
2020-03-22 15:00:00 19.2 21 Sudoeste 30 Sudoeste 0 -- -- 65
2020-03-22 14:00:00 20 19 Sudoeste 28 Sudoeste 0 -- -- 55
2020-03-22 13:00:00 20.9 11 Oeste 28 Este 0 -- -- 50
2020-03-22 12:00:00 19.9 7 Nordeste 28 Oeste 0 -- -- 49
2020-03-22 11:00:00 19.5 13 Oeste 25 Oeste 0 -- -- 56
2020-03-22 10:00:00 19.1 12 Sudoeste 15 Sudoeste 0 -- -- 56
2020-03-22 09:00:00 18.6 4 Oeste 9 Oeste 0 -- -- 55
2020-03-22 08:00:00 17.4 2 Norte 6 Norte 0 -- -- 61
2020-03-22 07:00:00 16 3 Nordeste 7 Nordeste 0 -- -- 65
2020-03-22 06:00:00 16.9 0 Calma 28 Sudeste 0 -- -- 63
2020-03-22 05:00:00 17.4 10 Sudeste 22 Sudeste 0 -- -- 64
2020-03-22 04:00:00 17.4 12 Sudeste 17 Sudeste 0 -- -- 63
2020-03-22 03:00:00 16.3 0 Calma 17 Sudoeste 0 -- -- 54
2020-03-22 02:00:00 17.3 10 Sur 16 Sur 0 -- -- 66
2020-03-22 01:00:00 17.9 6 Sur 10 Sur 0 -- -- 64
2020-03-22 00:00:00 17.8 0 Calma 12 Sur 0 -- -- 60
2020-03-21 23:00:00 18 3 Sudeste 14 Sur 0 -- -- 58
2020-03-21 22:00:00 18.3 12 Sur 23 Sur 0 -- -- 58
2020-03-21 21:00:00 18.1 18 Sur 23 Sur 0 -- -- 62
2020-03-21 20:00:00 18.2 20 Sur 25 Sur 0 -- -- 64
2020-03-21 19:00:00 18.4 18 Sudoeste 24 Sudoeste 0 -- -- 60
2020-03-21 18:00:00 18.7 20 Sudoeste 29 Sudoeste 0 -- -- 58
2020-03-21 17:00:00 19.9 14 Oeste 23 Oeste 0 -- -- 55
2020-03-21 16:00:00 20.6 13 Oeste 23 Sudoeste 0 -- -- 54
2020-03-21 15:00:00 21.7 13 Sudoeste 32 Oeste 0 -- -- 50
2020-03-21 14:00:00 20.8 11 Oeste 30 Oeste 0 -- -- 45
2020-03-21 13:00:00 20.8 9 Sudoeste 33 Este 0 -- -- 46
2020-03-21 12:00:00 19.9 24 Este 68 Nordeste 0 -- -- 52
2020-03-21 11:00:00 19.9 26 Nordeste 42 Este 0 -- -- 47
2020-03-21 10:00:00 19.2 30 Nordeste 71 Nordeste 0 -- -- 49
2020-03-21 09:00:00 18.4 22 Nordeste 33 Nordeste 0 -- -- 49
2020-03-21 08:00:00 17.8 17 Nordeste 35 Nordeste 0 -- -- 52
2020-03-21 07:00:00 17.4 6 Nordeste 12 Este 0 -- -- 53
2020-03-21 06:00:00 17.3 6 Nordeste 19 Nordeste 0 -- -- 55
2020-03-21 05:00:00 17.2 4 Nordeste 19 Nordeste 0 -- -- 57
2020-03-21 04:00:00 17.3 10 Nordeste 21 Nordeste 0 -- -- 60
2020-03-21 03:00:00 17.7 6 Nordeste 12 Este 0 -- -- 67
2020-03-21 02:00:00 17 3 Noroeste 18 Nordeste 0 -- -- 71
2020-03-21 01:00:00 17.3 17 Nordeste 29 Nordeste 0 -- -- 71
2020-03-21 00:00:00 17.9 9 Nordeste 32 Nordeste 0 -- -- 70
2020-03-20 23:00:00 17.5 19 Nordeste 26 Nordeste 0 -- -- 75
2020-03-20 22:00:00 18.1 13 Nordeste 24 Nordeste 0 -- -- 72
2020-03-20 21:00:00 18.4 9 Nordeste 24 Nordeste 0 -- -- 66
2020-03-20 20:00:00 18.9 8 Sur 11 Sur 0 -- -- 70
2020-03-20 19:00:00 19.3 8 Sudoeste 18 Oeste 0 -- -- 65
2020-03-20 18:00:00 20.3 13 Sudoeste 21 Sudoeste 0 -- -- 58
2020-03-20 17:00:00 20.6 12 Sudoeste 17 Sudoeste 0 -- -- 56
2020-03-20 16:00:00 21.5 12 Sudoeste 18 Sur 0 -- -- 57
2020-03-20 15:00:00 20.8 15 Sur 25 Sur 0 -- -- 61
2020-03-20 14:00:00 20.5 22 Sur 32 Sur 0 -- -- 67
2020-03-20 13:00:00 20.4 23 Sur 28 Sur 0 -- -- 69
2020-03-20 12:00:00 20.6 17 Sur 23 Sudoeste 0 -- -- 68
2020-03-20 11:00:00 20.9 9 Sudoeste 11 Sudoeste 0 -- -- 62
2020-03-20 10:00:00 20.3 6 Oeste 12 Oeste 0 -- -- 63
2020-03-20 09:00:00 19.2 6 Sudeste 14 Este 0 -- -- 68
2020-03-20 08:00:00 16.4 4 Nordeste 8 Este 0 -- -- 72
2020-03-20 07:00:00 16.1 4 Noroeste 7 Noroeste 0 -- -- 73
2020-03-20 06:00:00 16 0 Calma 10 Nordeste 0 -- -- 73
2020-03-20 05:00:00 17 5 Nordeste 10 Este 0 -- -- 71
2020-03-20 04:00:00 16.6 3 Norte 7 Norte 0 -- -- 72
2020-03-20 03:00:00 16.6 3 Noroeste 7 Noroeste 0 -- -- 72
2020-03-20 02:00:00 17 2 Norte 9 Este 0 -- -- 70
2020-03-20 01:00:00 17.2 0 Calma 7 Nordeste 0 -- -- 71
2020-03-20 00:00:00 17.9 0 Calma 5 Nordeste 0 -- -- 71
2020-03-19 23:00:00 18.1 3 Nordeste 15 Este 0 -- -- 70
2020-03-19 22:00:00 18 3 Nordeste 13 Este 0 -- -- 72
2020-03-19 21:00:00 19.4 0 Calma 8 Sudeste 0 -- -- 64
2020-03-19 20:00:00 19.7 3 Sudoeste 10 Sudoeste 0 -- -- 70
2020-03-19 19:00:00 19.8 8 Sudeste 21 Sudeste 0 -- -- 69
2020-03-19 18:00:00 20.1 10 Sur 27 Sudoeste 0 -- -- 71
2020-03-19 17:00:00 20.6 22 Sudoeste 32 Sudoeste 0 -- -- 65
2020-03-19 16:00:00 21.1 24 Sudoeste 31 Sudoeste 0 -- -- 61
2020-03-19 15:00:00 22.1 21 Sudoeste 28 Sur 0 -- -- 58
2020-03-19 14:00:00 21.1 22 Sur 27 Sur 0 -- -- 63
2020-03-19 13:00:00 21.1 19 Sur 25 Sur 0 -- -- 69
2020-03-19 12:00:00 20.5 16 Sur 21 Sudeste 0 -- -- 72
2020-03-19 11:00:00 20 13 Sudeste -- -- -- -- -- 69
2020-03-19 10:00:00 -- -- -- -- -- -- -- -- --
2020-03-19 09:00:00 -- -- -- -- -- -- -- -- --
2020-03-19 08:00:00 -- -- -- -- -- -- -- -- --
2020-03-19 07:00:00 -- -- -- -- -- -- -- -- --
2020-03-19 06:00:00 -- -- -- -- -- -- -- -- --
2020-03-19 05:00:00 -- -- -- -- -- -- -- -- --
2020-03-19 04:00:00 -- -- -- -- -- -- -- -- --
2020-03-19 03:00:00 -- -- -- -- -- -- -- -- --
2020-03-19 02:00:00 -- -- -- -- -- -- -- -- --
2020-03-19 01:00:00 -- -- -- -- -- -- -- -- --
2020-03-19 00:00:00 -- -- -- -- -- -- -- -- --
2020-03-18 23:00:00 -- -- -- -- -- -- -- -- --
2020-03-18 22:00:00 -- -- -- -- -- -- -- -- --
2020-03-18 21:00:00 -- -- -- -- -- -- -- -- --
2020-03-18 20:00:00 -- -- -- -- -- -- -- -- --
2020-03-18 19:00:00 -- -- -- -- -- -- -- -- --
2020-03-18 18:00:00 -- -- -- -- -- -- -- -- --
2020-03-18 17:00:00 -- -- -- -- -- -- -- -- --
2020-03-18 16:00:00 -- -- -- -- -- -- -- -- --
2020-03-18 15:00:00 -- -- -- -- -- -- -- -- --
2020-03-18 14:00:00 -- -- -- -- -- -- -- -- --
2020-03-18 13:00:00 19.6 18 Sur 21 Sur 0 -- -- 53
2020-03-18 12:00:00 20.1 15 Sur 19 Sur 0 -- -- 54
2020-03-18 11:00:00 19.3 16 Sur 19 Sur 0 -- -- 61
2020-03-18 10:00:00 18.8 5 Sur 9 Sudoeste 0 -- -- 58
2020-03-18 09:00:00 18.5 2 Sudoeste 6 Sudoeste 0 -- -- 57
2020-03-18 08:00:00 15.8 0 Calma 5 Noroeste 0 -- -- 68
2020-03-18 07:00:00 14.7 0 Calma 6 Norte 0 -- -- 72
2020-03-18 06:00:00 14.9 4 Nordeste 11 Nordeste 0 -- -- 71
2020-03-18 05:00:00 16.1 0 Calma 5 Nordeste 0 -- -- 66
2020-03-18 04:00:00 16 0 Calma 21 Este 0 -- -- 65
2020-03-18 03:00:00 16.8 4 Nordeste 8 Nordeste 0 -- -- 65
2020-03-18 02:00:00 16.8 0 Calma 14 Este 0 -- -- 65
2020-03-18 01:00:00 16.5 8 Este 18 Nordeste 0 -- -- 68
2020-03-18 00:00:00 17.1 8 Nordeste 21 Este 0 -- -- 63
2020-03-17 23:00:00 17.6 5 Este 14 Este 0 -- -- 64
2020-03-17 22:00:00 17.8 7 Este 17 Este 0 -- -- 60
2020-03-17 21:00:00 18.3 12 Sudoeste 18 Sudoeste 0 -- -- 64
2020-03-17 20:00:00 18.3 11 Sudoeste 19 Sudoeste 0 -- -- 64
2020-03-17 19:00:00 18.5 14 Sudoeste 26 Sudoeste 0 -- -- 66
2020-03-17 18:00:00 18.8 19 Sudoeste 27 Sudoeste 0 -- -- 65
2020-03-17 17:00:00 18.7 19 Sudoeste 27 Sudoeste 0 -- -- 65
2020-03-17 16:00:00 18.7 23 Sudoeste 29 Sudoeste 0 -- -- 62
2020-03-17 15:00:00 19.7 21 Sudoeste 29 Sudoeste 0 -- -- 59
2020-03-17 14:00:00 20.1 13 Oeste 25 Sudoeste 0 -- -- 54
2020-03-17 13:00:00 20 12 Oeste 23 Oeste 0 -- -- 51
2020-03-17 12:00:00 20.5 3 Nordeste 50 Este 0 -- -- 51
2020-03-17 11:00:00 19.4 28 Nordeste 44 Nordeste 0 -- -- 52
2020-03-17 10:00:00 19 13 Este 34 Este 0 -- -- 49
2020-03-17 09:00:00 18.4 12 Nordeste 28 Nordeste 0 -- -- 51
2020-03-17 08:00:00 16.9 18 Nordeste 30 Nordeste 0 -- -- 56
2020-03-17 07:00:00 16.7 17 Nordeste 27 Nordeste 0 -- -- 59
2020-03-17 06:00:00 16.7 8 Nordeste 32 Nordeste 0 -- -- 59
2020-03-17 05:00:00 16.6 12 Nordeste 39 Nordeste 0 -- -- 59
2020-03-17 04:00:00 16 28 Nordeste 49 Nordeste 0 -- -- 67
2020-03-17 03:00:00 17.2 15 Nordeste 39 Nordeste 0 -- -- 53
2020-03-17 02:00:00 17.1 20 Nordeste 33 Nordeste 0 -- -- 56
2020-03-17 01:00:00 17.2 19 Nordeste 37 Nordeste 0 -- -- 57
2020-03-17 00:00:00 17.9 21 Nordeste 31 Nordeste 0 -- -- 60
2020-03-16 23:00:00 18 12 Nordeste 29 Nordeste 0 -- -- 63
2020-03-16 22:00:00 18.3 10 Nordeste 20 Nordeste 0 -- -- 64
2020-03-16 21:00:00 18.7 6 Nordeste 28 Nordeste 0 -- -- 62
2020-03-16 20:00:00 19.1 8 Este 24 Este 0 -- -- 60
2020-03-16 19:00:00 19.5 3 Oeste 11 Oeste 0 -- -- 68
2020-03-16 18:00:00 20.3 5 Sudoeste 24 Sudoeste 0 -- -- 59
2020-03-16 17:00:00 20.4 23 Sudoeste 32 Sudoeste 0 -- -- 62
2020-03-16 16:00:00 20.8 14 Sudoeste 27 Sudoeste 0 -- -- 55
2020-03-16 15:00:00 21 17 Sudoeste 30 Sudoeste 0 -- -- 58
2020-03-16 14:00:00 20.6 22 Sudoeste 31 Sudoeste 0 -- -- 58
2020-03-16 13:00:00 20.4 23 Sudoeste 28 Sudoeste 0 -- -- 61
2020-03-16 12:00:00 20.7 12 Sudoeste 18 Sudoeste 0 -- -- 59
2020-03-16 11:00:00 20 9 Sudoeste 12 Sudoeste 0 -- -- 59
2020-03-16 10:00:00 19.3 5 Sudoeste 9 Sudoeste 0 -- -- 63
2020-03-16 09:00:00 18.1 0 Calma 6 Nordeste 0 -- -- 65
2020-03-16 08:00:00 16.4 6 Nordeste 11 Este 0 -- -- 68
2020-03-16 07:00:00 15.3 0 Calma 9 Noroeste 0 -- -- 72
2020-03-16 06:00:00 16.2 0 Calma 6 Norte 0 -- -- 70
2020-03-16 05:00:00 16.1 0 Calma 5 Noroeste 0 -- -- 70
2020-03-16 04:00:00 16.9 0 Calma 8 Oeste 0 -- -- 69
2020-03-16 03:00:00 18 0 Calma 9 Nordeste 0 -- -- 66
2020-03-16 02:00:00 17.8 0 Calma 8 Oeste 0 -- -- 65
2020-03-16 01:00:00 17.7 2 Nordeste 7 Norte 0 -- -- 64
2020-03-16 00:00:00 17.2 2 Norte 6 Oeste 0 -- -- 68
2020-03-15 23:00:00 18.3 2 Oeste 6 Oeste 0 -- -- 66
2020-03-15 22:00:00 18.3 0 Calma 15 Sudeste 0 -- -- 63
2020-03-15 21:00:00 18.7 13 Sur 18 Sur 0 -- -- 66
2020-03-15 20:00:00 18.7 9 Sur 19 Oeste 0 -- -- 69
2020-03-15 19:00:00 19.7 6 Oeste 17 Este 0 -- -- 57
2020-03-15 18:00:00 20.1 14 Este 26 Sur 0 -- -- 54
2020-03-15 17:00:00 19.4 17 Sur 25 Sur 0 -- -- 65
2020-03-15 16:00:00 20.9 17 Sudoeste 22 Sudoeste 0 -- -- 56
2020-03-15 15:00:00 20.1 20 Sudoeste 28 Oeste 0 -- -- 61
2020-03-15 14:00:00 20.8 16 Oeste 26 Sudoeste 0 -- -- 56
2020-03-15 13:00:00 21.4 9 Oeste 17 Oeste 0 -- -- 49
2020-03-15 12:00:00 20.9 7 Sur 17 Sudeste 0 -- -- 51
2020-03-15 11:00:00 19.6 6 Sudeste 20 Este 0 -- -- 57
2020-03-15 10:00:00 19.2 12 Este 21 Este 0 -- -- 60
2020-03-15 09:00:00 18.9 3 Nordeste 7 Nordeste 0 -- -- 59
2020-03-15 08:00:00 16.8 0 Calma 9 Nordeste 0 -- -- 64
2020-03-15 07:00:00 15.5 0 Calma 8 Noroeste 0 -- -- 69
2020-03-15 06:00:00 16.1 3 Noroeste 9 Norte 0 -- -- 69
2020-03-15 05:00:00 15.9 0 Calma 10 Noroeste 0 -- -- 72
2020-03-15 04:00:00 16 0 Calma 9 Oeste 0 -- -- 72
2020-03-15 03:00:00 17 3 Oeste 6 Noroeste 0 -- -- 67
2020-03-15 02:00:00 17.2 0 Calma 5 Nordeste 0 -- -- 68
2020-03-15 01:00:00 17 0 Calma 5 Norte 0 -- -- 69
2020-03-15 00:00:00 16.9 0 Calma 4 Nordeste 0 -- -- 71
2020-03-14 23:00:00 17.8 0 Calma 6 Nordeste 0 -- -- 70
2020-03-14 22:00:00 18.3 3 Nordeste 13 Este 0 -- -- 60
2020-03-14 21:00:00 19 9 Sudoeste 19 Sudoeste 0 -- -- 68
2020-03-14 20:00:00 19.2 8 Sudoeste 23 Sudoeste 0 -- -- 67
2020-03-14 19:00:00 19.5 9 Oeste 18 Oeste 0 -- -- 63
2020-03-14 18:00:00 20 9 Oeste 17 Oeste 0 -- -- 60
2020-03-14 17:00:00 20.9 6 Sudoeste 12 Sudoeste 0 -- -- 54
2020-03-14 16:00:00 21.5 5 Sudoeste 19 Sudoeste 0 -- -- 55
2020-03-14 15:00:00 21.1 11 Sudoeste 27 Sur 0 -- -- 59
2020-03-14 14:00:00 20.6 9 Sudoeste 26 Sudoeste 0 -- -- 64
2020-03-14 13:00:00 20.5 12 Sudoeste 45 Nordeste 0 -- -- 67
2020-03-14 12:00:00 22.1 26 Nordeste 53 Este 0 -- -- 54
2020-03-14 11:00:00 20.2 4 Sur 26 Sudoeste 0 -- -- 59
2020-03-14 10:00:00 19.6 6 Sur 10 Sudeste 0 -- -- 69
2020-03-14 09:00:00 18.9 3 Nordeste 6 Nordeste 0 -- -- 68
2020-03-14 08:00:00 16 0 Calma 3 Norte 0 -- -- 80
2020-03-14 07:00:00 16.3 0 Calma 10 Norte 0 -- -- 78
2020-03-14 06:00:00 16.7 5 Nordeste 9 Norte 0 -- -- 76
2020-03-14 05:00:00 16.5 4 Nordeste 11 Este 0 -- -- 80
2020-03-14 04:00:00 17 3 Este 7 Nordeste 0 -- -- 80
2020-03-14 03:00:00 16.4 0 Calma 7 Este 0 -- -- 81
2020-03-14 02:00:00 18.3 6 Este 16 Este 0 -- -- 73
2020-03-14 01:00:00 18.3 4 Este 11 Este 0 -- -- 69
2020-03-14 00:00:00 18.4 0 Calma 9 Nordeste 0 -- -- 68
2020-03-13 23:00:00 18.2 3 Este 7 Nordeste 0 -- -- 75
2020-03-13 22:00:00 18.4 0 Calma -- -- 0 -- -- 76
2020-03-13 21:00:00 18.5 0 Calma 7 Oeste 0 -- -- 77
2020-03-13 20:00:00 19 3 Oeste 9 Sudoeste 0 -- -- 78
2020-03-13 19:00:00 19.6 4 Sudoeste 14 Sudoeste 0 -- -- 76
2020-03-13 18:00:00 19.8 12 Sudoeste 18 Sudoeste 0 -- -- 77
2020-03-13 17:00:00 20.1 10 Sudoeste 22 Sudoeste 0 -- -- 75
2020-03-13 16:00:00 20.3 14 Sudoeste 22 Sudoeste 0 -- -- 76
2020-03-13 15:00:00 20.7 15 Sudoeste 21 Sudoeste 0 -- -- 73
2020-03-13 14:00:00 20.8 9 Oeste 23 Oeste 0 -- -- 70
2020-03-13 13:00:00 20.5 14 Oeste 28 Sudoeste 0 -- -- 70
2020-03-13 12:00:00 21.8 5 Oeste 26 Oeste 0 -- -- 66
2020-03-13 11:00:00 20.4 6 Sur 45 Nordeste 0 -- -- 72
2020-03-13 10:00:00 20.9 19 Nordeste 29 Nordeste 0 -- -- 58
2020-03-13 09:00:00 19.5 14 Nordeste 19 Nordeste 0 -- -- 65
2020-03-13 08:00:00 17.2 6 Nordeste 14 Nordeste 0 -- -- 74
2020-03-13 07:00:00 16.1 3 Nordeste 9 Nordeste 0 -- -- 84
2020-03-13 06:00:00 16.7 5 Nordeste 10 Norte 0 -- -- 81
2020-03-13 05:00:00 17.4 2 Sur 9 Sudoeste 0 -- -- 91
2020-03-13 04:00:00 16 0 Calma 8 Noroeste 0 -- -- 88
2020-03-13 03:00:00 17 0 Calma 9 Nordeste 0 -- -- 82
2020-03-13 02:00:00 18.8 6 Sur 9 Sudoeste 0 -- -- 89
2020-03-13 01:00:00 18.4 2 Oeste 5 Oeste 0 -- -- 76
2020-03-13 00:00:00 18.1 2 Nordeste 12 Nordeste 0 -- -- 82
2020-03-12 23:00:00 18.4 6 Nordeste 13 Nordeste 0 -- -- 83
2020-03-12 22:00:00 18.8 6 Nordeste 10 Nordeste 0 -- -- 82
2020-03-12 21:00:00 19.5 4 Nordeste 9 Nordeste 0 -- -- 79
2020-03-12 20:00:00 20.4 0 Calma 8 Sudoeste 0 -- -- 76
2020-03-12 19:00:00 21.3 0 Calma 18 Nordeste 0 -- -- 73
2020-03-12 18:00:00 23.1 21 Nordeste 33 Este 0 -- -- 63
2020-03-12 17:00:00 24 26 Este 33 Este 0 -- -- 51
2020-03-12 16:00:00 24.8 24 Este 34 Este 0 -- -- 38
2020-03-12 15:00:00 24.9 24 Este 35 Este 0 -- -- 36
2020-03-12 14:00:00 24.9 28 Este 38 Este 0 -- -- 33
2020-03-12 13:00:00 24.9 29 Este 40 Este 0 -- -- 36
2020-03-12 12:00:00 25.3 28 Este 40 Este 0 -- -- 30
2020-03-12 11:00:00 24.6 30 Este 38 Este 0 -- -- 41
2020-03-12 10:00:00 22.2 2 Este 24 Este 0 -- -- 60
2020-03-12 09:00:00 19.7 7 Sudoeste 15 Sudoeste 0 -- -- 85
2020-03-12 08:00:00 18.7 5 Oeste 16 Nordeste 0 -- -- 73
2020-03-12 07:00:00 17.4 11 Nordeste 35 Nordeste 0 -- -- 68
2020-03-12 06:00:00 18.6 3 Nordeste 9 Nordeste 0 -- -- 47
2020-03-12 05:00:00 19.5 2 Noroeste 34 Nordeste 0 -- -- 53
2020-03-12 04:00:00 22.7 22 Nordeste 41 Nordeste 0 -- -- 27
2020-03-12 03:00:00 20.3 26 Nordeste 42 Nordeste 0 -- -- 46
2020-03-12 02:00:00 18.8 16 Nordeste 29 Nordeste 0 -- -- 62
2020-03-12 01:00:00 17.4 9 Nordeste 19 Nordeste 0 -- -- 82
2020-03-12 00:00:00 18.1 12 Nordeste 22 Este 0 -- -- 83
2020-03-11 23:00:00 18.2 16 Este 30 Sudeste 0 -- -- 85
2020-03-11 22:00:00 18.5 0 Calma 5 Oeste 0 -- -- 83
2020-03-11 21:00:00 18.9 0 Calma 6 Sudoeste 0 -- -- 88
2020-03-11 20:00:00 19.9 3 Oeste 10 Este 0 -- -- 80
2020-03-11 19:00:00 21.6 6 Nordeste 23 Nordeste 0 -- -- 53
2020-03-11 18:00:00 22.4 14 Nordeste 23 Este 0 -- -- 52
2020-03-11 17:00:00 20.5 20 Este 29 Este 0 -- -- 67
2020-03-11 16:00:00 23.6 23 Este 29 Este 0 -- -- 49
2020-03-11 15:00:00 22.1 22 Este 31 Nordeste 0 -- -- 52
2020-03-11 14:00:00 24 22 Este 31 Este 0 -- -- 47
2020-03-11 13:00:00 21.3 22 Este 29 Este 0 -- -- 70
2020-03-11 12:00:00 20.4 19 Este 27 Este 0 -- -- 76
2020-03-11 11:00:00 19.2 17 Este 22 Este 0 -- -- 82
2020-03-11 10:00:00 18.9 12 Nordeste 21 Este 0 -- -- 79
2020-03-11 09:00:00 16.7 3 Nordeste 6 Este 0 -- -- 76
2020-03-11 08:00:00 16.2 4 Nordeste 20 Nordeste 0 -- -- 79
2020-03-11 07:00:00 16.8 14 Nordeste 30 Nordeste 0 -- -- 82
2020-03-11 06:00:00 16.9 19 Nordeste 31 Nordeste 0 -- -- 83
2020-03-11 05:00:00 16.8 20 Nordeste 32 Nordeste 0 -- -- 84
2020-03-11 04:00:00 15.4 0 Calma 12 Nordeste 0 -- -- 87
2020-03-11 03:00:00 15.5 5 Nordeste 10 Nordeste 0 -- -- 91
2020-03-11 02:00:00 15.8 0 Calma 5 Sudeste 0 -- -- 87
2020-03-11 01:00:00 17 0 Calma 6 Noroeste 0 -- -- 88
2020-03-11 00:00:00 17.3 0 Calma 5 Nordeste 0 -- -- 82
2020-03-10 23:00:00 18.3 0 Calma 5 Sudeste 0 -- -- 80
2020-03-10 22:00:00 18.4 4 Nordeste 14 Nordeste 0 -- -- 82
2020-03-10 21:00:00 18.7 6 Este 9 Este 0 -- -- 84
2020-03-10 20:00:00 18.8 0 Calma 9 Sudoeste 0 -- -- 79
2020-03-10 19:00:00 19.6 5 Sudoeste 10 Oeste 0 -- -- 80
2020-03-10 18:00:00 19.9 4 Oeste 12 Sudoeste 0 -- -- 77
2020-03-10 17:00:00 20.8 11 Sudoeste 13 Sudoeste 0 -- -- 77
2020-03-10 16:00:00 21.2 10 Sudoeste 17 Sudoeste 0 -- -- 73
2020-03-10 15:00:00 21.5 10 Sudoeste 31 Este 0 -- -- 73
2020-03-10 14:00:00 20.6 26 Este 33 Este 0 -- -- 75
2020-03-10 13:00:00 20.5 25 Este 35 Este -- -- -- 76
2020-03-10 12:00:00 21.2 27 Nordeste -- -- -- -- -- 69
2020-03-10 11:00:00 -- -- -- -- -- -- -- -- --
2020-03-10 10:00:00 21.6 18 Este 30 Este 0.6 -- -- 55
2020-03-10 09:00:00 21.6 3 Este 7 Este 0 -- -- 47
2020-03-10 08:00:00 19.1 2 Nordeste 21 Nordeste 0 -- -- 44
2020-03-10 07:00:00 17 3 Norte 21 Nordeste 0 -- -- 51
2020-03-10 06:00:00 18.4 9 Nordeste 25 Nordeste 0 -- -- 52
2020-03-10 05:00:00 19.2 13 Nordeste 31 Nordeste 0 -- -- 46
2020-03-10 04:00:00 21 17 Nordeste 37 Este 0 -- -- 34
2020-03-10 03:00:00 22.1 23 Nordeste 32 Este 0 -- -- 31
2020-03-10 02:00:00 20.7 21 Nordeste 35 Nordeste 0 -- -- 39
2020-03-10 01:00:00 23 17 Nordeste 28 Nordeste 0 -- -- 30
2020-03-10 00:00:00 22.1 15 Nordeste 26 Este 0 -- -- 37